createdAt,value
2023-04-15T00:01:19.379Z,76.30
2023-04-15T00:03:47.815Z,76.06
2023-04-15T00:06:16.790Z,76.21
2023-04-15T00:08:44.190Z,75.92
2023-04-15T00:11:12.509Z,75.83
2023-04-15T00:13:40.071Z,75.52
2023-04-15T00:16:09.075Z,76.79
2023-04-15T00:18:37.422Z,76.11
2023-04-15T00:21:05.439Z,76.35
2023-04-15T00:23:34.217Z,76.97
2023-04-15T00:26:01.593Z,76.10
2023-04-15T00:28:29.517Z,76.19
2023-04-15T00:30:57.881Z,76.89
2023-04-15T00:33:25.418Z,77.43
2023-04-15T00:35:53.662Z,77.32
2023-04-15T00:38:21.060Z,77.31
2023-04-15T00:40:50.162Z,76.88
2023-04-15T00:43:17.625Z,77.23
2023-04-15T00:45:47.104Z,76.21
2023-04-15T00:48:15.477Z,76.37
2023-04-15T00:50:42.875Z,77.07
2023-04-15T00:53:10.333Z,76.94
2023-04-15T00:55:39.194Z,75.87
2023-04-15T00:58:07.950Z,76.84
2023-04-15T01:00:35.913Z,76.96
2023-04-15T01:03:03.596Z,76.84
2023-04-15T01:05:31.887Z,76.13
2023-04-15T01:07:59.495Z,77.22
2023-04-15T01:10:27.334Z,76.79
2023-04-15T01:12:54.948Z,77.37
2023-04-15T01:15:25.038Z,77.16
2023-04-15T01:17:52.818Z,77.01
2023-04-15T01:20:20.584Z,76.94
2023-04-15T01:22:48.839Z,77.02
2023-04-15T01:25:19.432Z,77.03
2023-04-15T01:27:48.440Z,78.10
2023-04-15T01:30:17.339Z,78.55
2023-04-15T01:32:44.709Z,77.39
2023-04-15T01:35:30.950Z,77.56
2023-04-15T01:38:02.391Z,77.27
2023-04-15T01:40:29.945Z,77.71
2023-04-15T01:43:02.214Z,77.61
2023-04-15T01:45:31.033Z,77.82
2023-04-15T01:47:59.780Z,78.12
2023-04-15T01:50:28.491Z,78.54
2023-04-15T01:52:57.191Z,77.44
2023-04-15T01:55:26.143Z,78.35
2023-04-15T01:57:54.817Z,78.58
2023-04-15T02:00:24.915Z,78.20
2023-04-15T02:02:54.609Z,78.05
2023-04-15T02:05:23.424Z,78.43
2023-04-15T02:07:52.333Z,77.83
2023-04-15T02:10:20.961Z,78.24
2023-04-15T02:12:49.676Z,79.52
2023-04-15T02:15:18.372Z,78.75
2023-04-15T02:17:52.670Z,78.41
2023-04-15T02:20:21.655Z,78.62
2023-04-15T02:22:50.360Z,79.45
2023-04-15T02:25:20.193Z,78.65
2023-04-15T02:27:48.852Z,78.80
2023-04-15T02:30:19.182Z,77.74
2023-04-15T02:32:49.021Z,78.97
2023-04-15T02:35:19.825Z,79.21
2023-04-15T02:37:48.455Z,79.01
2023-04-15T02:40:17.635Z,79.63
2023-04-15T02:42:47.528Z,80.36
2023-04-15T02:45:20.372Z,79.67
2023-04-15T02:47:50.806Z,79.75
2023-04-15T02:50:19.923Z,79.39
2023-04-15T02:52:48.695Z,79.80
2023-04-15T02:55:18.015Z,79.88
2023-04-15T02:57:46.624Z,80.31
2023-04-15T03:00:16.173Z,81.10
2023-04-15T03:02:52.433Z,80.55
2023-04-15T03:05:21.255Z,79.67
2023-04-15T03:07:53.138Z,79.67
2023-04-15T03:10:22.532Z,81.08
2023-04-15T03:12:51.234Z,80.49
2023-04-15T03:15:23.033Z,81.03
2023-04-15T03:17:55.601Z,80.47
2023-04-15T03:20:24.728Z,80.79
2023-04-15T03:22:53.584Z,80.37
2023-04-15T03:25:23.893Z,80.33
2023-04-15T03:27:53.825Z,81.29
2023-04-15T03:30:22.522Z,81.19
2023-04-15T03:32:51.604Z,80.77
2023-04-15T03:35:21.467Z,80.67
2023-04-15T03:37:50.150Z,80.16
2023-04-15T03:40:19.025Z,81.18
2023-04-15T03:42:47.600Z,81.20
2023-04-15T03:45:16.471Z,81.15
2023-04-15T03:47:45.222Z,81.36
2023-04-15T03:50:13.872Z,81.10
2023-04-15T03:52:44.231Z,80.71
2023-04-15T03:55:13.327Z,80.98
2023-04-15T03:57:42.070Z,81.53
2023-04-15T04:00:11.047Z,80.18
2023-04-15T04:02:42.655Z,80.06
2023-04-15T04:05:11.508Z,80.70
2023-04-15T04:07:40.680Z,80.26
2023-04-15T04:10:11.295Z,80.97
2023-04-15T04:12:40.087Z,81.29
2023-04-15T04:15:09.335Z,80.78
2023-04-15T04:17:38.090Z,81.03
2023-04-15T04:20:08.155Z,81.64
2023-04-15T04:22:38.562Z,82.05
2023-04-15T04:25:08.576Z,81.99
2023-04-15T04:27:38.825Z,81.57
2023-04-15T04:30:08.583Z,82.05
2023-04-15T04:32:37.292Z,82.38
2023-04-15T04:35:07.074Z,81.88
2023-04-15T04:37:35.714Z,82.58
2023-04-15T04:40:05.193Z,81.66
2023-04-15T04:42:33.835Z,82.41
2023-04-15T04:45:04.231Z,81.10
2023-04-15T04:47:32.862Z,81.22
2023-04-15T04:50:01.485Z,81.74
2023-04-15T04:52:30.132Z,81.40
2023-04-15T04:54:58.687Z,81.38
2023-04-15T04:57:27.269Z,82.34
2023-04-15T04:59:55.931Z,80.92
2023-04-15T05:02:27.414Z,82.16
2023-04-15T05:04:56.766Z,82.93
2023-04-15T05:07:25.735Z,82.98
2023-04-15T05:09:54.278Z,83.48
2023-04-15T05:12:22.828Z,83.38
2023-04-15T05:14:51.453Z,83.50
2023-04-15T05:17:20.071Z,83.03
2023-04-15T05:19:50.067Z,82.67
2023-04-15T05:22:18.646Z,82.99
2023-04-15T05:24:47.229Z,82.84
2023-04-15T05:27:15.828Z,83.32
2023-04-15T05:29:44.424Z,83.39
2023-04-15T05:32:13.014Z,82.38
2023-04-15T05:34:41.906Z,83.23
2023-04-15T05:37:11.815Z,82.76
2023-04-15T05:39:40.459Z,82.19
2023-04-15T05:42:09.157Z,83.23
2023-04-15T05:44:37.843Z,82.64
2023-04-15T05:47:07.877Z,83.10
2023-04-15T05:49:36.731Z,82.58
2023-04-15T05:52:05.764Z,82.37
2023-04-15T05:54:36.494Z,82.09
2023-04-15T05:57:08.259Z,81.25
2023-04-15T05:59:36.897Z,81.69
2023-04-15T06:02:06.312Z,81.58
2023-04-15T06:04:35.128Z,81.80
2023-04-15T06:07:04.021Z,82.06
2023-04-15T06:09:32.694Z,81.79
2023-04-15T06:12:03.047Z,81.67
2023-04-15T06:14:35.096Z,81.10
2023-04-15T06:17:04.758Z,79.75
2023-04-15T06:19:33.524Z,79.67
2023-04-15T06:22:02.572Z,79.15
2023-04-15T06:24:33.029Z,78.29
2023-04-15T06:27:03.306Z,78.70
2023-04-15T06:29:31.937Z,78.24
2023-04-15T06:32:00.622Z,77.72
2023-04-15T06:34:29.315Z,76.84
2023-04-15T06:36:57.902Z,76.02
2023-04-15T06:39:26.973Z,74.76
2023-04-15T06:41:56.689Z,74.66
2023-04-15T06:44:26.892Z,73.78
2023-04-15T06:46:55.613Z,73.04
2023-04-15T06:49:24.262Z,72.03
2023-04-15T06:51:52.884Z,73.46
2023-04-15T06:54:21.762Z,72.45
2023-04-15T06:56:51.480Z,71.63
2023-04-15T06:59:20.246Z,71.61
2023-04-15T07:01:50.644Z,70.51
2023-04-15T07:04:19.441Z,71.78
2023-04-15T07:06:48.086Z,68.24
2023-04-15T07:09:16.781Z,68.84
2023-04-15T07:11:45.648Z,68.27
2023-04-15T07:14:14.174Z,66.45
2023-04-15T07:16:43.052Z,66.03
2023-04-15T07:19:13.106Z,66.86
2023-04-15T07:21:42.261Z,66.61
2023-04-15T07:24:11.097Z,64.57
2023-04-15T07:26:40.453Z,63.85
2023-04-15T07:29:09.202Z,64.03
2023-04-15T07:31:42.826Z,63.76
2023-04-15T07:34:12.881Z,63.00
2023-04-15T07:36:41.659Z,62.84
2023-04-15T07:39:10.457Z,62.36
2023-04-15T07:41:38.947Z,61.07
2023-04-15T07:44:07.695Z,58.26
2023-04-15T07:46:37.288Z,57.90
2023-04-15T07:49:06.000Z,56.61
2023-04-15T07:51:35.941Z,58.54
2023-04-15T07:54:04.545Z,57.82
2023-04-15T07:56:33.202Z,56.94
2023-04-15T07:59:06.457Z,58.86
2023-04-15T08:01:35.676Z,58.33
2023-04-15T08:04:04.732Z,56.42
2023-04-15T08:06:34.223Z,55.91
2023-04-15T08:09:04.555Z,55.16
2023-04-15T08:11:33.668Z,53.40
2023-04-15T08:14:02.397Z,54.43
2023-04-15T08:16:31.105Z,53.03
2023-04-15T08:19:00.195Z,52.52
2023-04-15T08:21:30.931Z,54.52
2023-04-15T08:24:00.321Z,54.31
2023-04-15T08:26:30.281Z,54.97
2023-04-15T08:28:58.900Z,52.34
2023-04-15T08:31:30.002Z,51.67
2023-04-15T08:33:59.303Z,54.01
2023-04-15T08:36:28.478Z,54.83
2023-04-15T08:38:57.116Z,52.23
2023-04-15T08:41:27.130Z,54.05
2023-04-15T08:44:01.321Z,50.85
2023-04-15T08:46:32.108Z,50.26
2023-04-15T08:49:04.415Z,49.81
2023-04-15T08:51:33.961Z,49.05
2023-04-15T08:54:04.018Z,47.61
2023-04-15T08:56:33.301Z,45.57
2023-04-15T08:59:04.039Z,45.65
2023-04-15T09:01:33.352Z,46.25
2023-04-15T09:04:03.174Z,47.84
2023-04-15T09:06:31.950Z,49.01
2023-04-15T09:09:01.237Z,47.89
2023-04-15T09:11:31.366Z,48.37
2023-04-15T09:14:00.050Z,48.89
2023-04-15T09:16:30.056Z,50.92
2023-04-15T09:18:58.729Z,50.00
2023-04-15T09:21:27.755Z,48.79
2023-04-15T09:23:58.104Z,48.16
2023-04-15T09:26:34.195Z,46.93
2023-04-15T09:29:06.577Z,46.04
2023-04-15T09:31:37.050Z,45.02
2023-04-15T09:34:06.924Z,44.00
2023-04-15T09:36:53.521Z,44.14
2023-04-15T09:39:22.509Z,44.11
2023-04-15T09:42:07.232Z,41.62
2023-04-15T09:44:36.685Z,41.67
2023-04-15T09:47:06.703Z,41.67
2023-04-15T09:49:35.448Z,43.14
2023-04-15T09:52:06.326Z,42.97
2023-04-15T09:54:37.091Z,42.81
2023-04-15T09:57:07.202Z,42.18
2023-04-15T09:59:36.289Z,42.07
2023-04-15T10:02:07.492Z,44.53
2023-04-15T10:04:40.743Z,42.58
2023-04-15T10:07:10.242Z,42.91
2023-04-15T10:09:39.542Z,43.45
2023-04-15T10:12:09.174Z,43.43
2023-04-15T10:14:40.294Z,44.28
2023-04-15T10:17:12.298Z,44.21
2023-04-15T10:19:41.897Z,42.48
2023-04-15T10:22:10.713Z,42.53
2023-04-15T10:24:41.009Z,42.37
2023-04-15T10:27:10.985Z,43.59
2023-04-15T10:29:40.040Z,42.26
2023-04-15T10:32:11.380Z,41.58
2023-04-15T10:34:40.938Z,41.71
2023-04-15T10:37:11.654Z,41.23
2023-04-15T10:39:42.946Z,40.67
2023-04-15T10:42:12.772Z,41.38
2023-04-15T10:44:43.337Z,41.15
2023-04-15T10:47:15.490Z,40.98
2023-04-15T10:49:46.182Z,41.30
2023-04-15T10:52:16.868Z,40.88
2023-04-15T10:54:45.713Z,40.46
2023-04-15T10:57:16.982Z,41.56
2023-04-15T11:00:11.230Z,42.29
2023-04-15T11:02:47.014Z,40.61
2023-04-15T11:05:16.842Z,41.78
2023-04-15T11:07:53.796Z,40.59
2023-04-15T11:10:53.237Z,41.63
2023-04-15T11:13:31.313Z,42.44
2023-04-15T11:16:03.492Z,43.10
2023-04-15T11:18:35.729Z,42.93
2023-04-15T11:21:06.622Z,42.50
2023-04-15T11:23:38.581Z,43.41
2023-04-15T11:26:09.860Z,43.85
2023-04-15T11:28:41.420Z,45.21
2023-04-15T11:31:12.227Z,43.78
2023-04-15T11:33:56.554Z,44.08
2023-04-15T11:36:27.209Z,42.21
2023-04-15T11:38:56.206Z,42.65
2023-04-15T11:41:25.107Z,42.10
2023-04-15T11:43:53.818Z,42.22
2023-04-15T11:46:30.032Z,43.05
2023-04-15T11:49:00.353Z,42.00
2023-04-15T11:51:33.066Z,40.72
2023-04-15T11:54:00.852Z,40.22
2023-04-15T11:56:28.330Z,42.01
2023-04-15T11:58:57.222Z,41.58
2023-04-15T12:01:31.732Z,42.03
2023-04-15T12:04:01.561Z,40.86
2023-04-15T12:06:34.848Z,42.62
2023-04-15T12:09:09.258Z,41.18
2023-04-15T12:11:42.046Z,41.37
2023-04-15T12:14:12.710Z,41.74
2023-04-15T12:16:48.271Z,42.32
2023-04-15T12:19:22.691Z,42.14
2023-04-15T12:21:50.386Z,41.73
2023-04-15T12:24:21.289Z,44.18
2023-04-15T12:26:50.375Z,43.25
2023-04-15T12:29:18.109Z,43.70
2023-04-15T12:31:51.649Z,45.21
2023-04-15T12:34:28.407Z,45.26
2023-04-15T12:36:56.673Z,45.70
2023-04-15T12:39:24.868Z,44.56
2023-04-15T12:41:52.782Z,43.06
2023-04-15T12:44:22.770Z,42.98
2023-04-15T12:46:51.025Z,42.20
2023-04-15T12:49:20.997Z,40.59
2023-04-15T12:51:49.287Z,39.55
2023-04-15T12:54:17.504Z,41.15
2023-04-15T12:56:46.094Z,42.37
2023-04-15T12:59:13.863Z,42.95
2023-04-15T13:01:41.537Z,43.32
2023-04-15T13:04:09.538Z,44.18
2023-04-15T13:06:38.736Z,45.50
2023-04-15T13:09:06.680Z,43.92
2023-04-15T13:11:34.480Z,46.30
2023-04-15T13:14:03.144Z,46.94
2023-04-15T13:16:31.996Z,48.75
2023-04-15T13:18:59.883Z,50.92
2023-04-15T13:21:27.769Z,52.44
2023-04-15T13:23:56.675Z,51.41
2023-04-15T13:26:24.154Z,52.02
2023-04-15T13:28:51.931Z,51.84
2023-04-15T13:31:19.435Z,52.76
2023-04-15T13:33:46.911Z,48.74
2023-04-15T13:36:14.540Z,44.69
2023-04-15T13:38:42.136Z,46.44
2023-04-15T13:41:11.229Z,46.40
2023-04-15T13:43:38.682Z,48.06
2023-04-15T13:46:06.193Z,47.55
2023-04-15T13:48:33.822Z,47.51
2023-04-15T13:51:01.398Z,46.81
2023-04-15T13:53:37.744Z,46.23
2023-04-15T13:56:06.438Z,46.64
2023-04-15T13:58:35.648Z,46.69
2023-04-15T14:01:05.758Z,47.28
2023-04-15T14:03:34.978Z,43.93
2023-04-15T14:06:02.634Z,47.19
2023-04-15T14:08:30.383Z,45.49
2023-04-15T14:10:57.936Z,45.37
2023-04-15T14:13:25.564Z,46.33
2023-04-15T14:15:54.434Z,47.06
2023-04-15T14:18:21.996Z,47.36
2023-04-15T14:20:49.456Z,45.74
2023-04-15T14:23:16.911Z,46.60
2023-04-15T14:25:46.682Z,46.07
2023-04-15T14:28:15.885Z,45.55
2023-04-15T14:30:43.509Z,45.99
2023-04-15T14:33:12.637Z,46.44
2023-04-15T14:35:40.161Z,46.56
2023-04-15T14:38:10.682Z,46.21
2023-04-15T14:40:38.346Z,44.92
2023-04-15T14:43:05.827Z,45.08
2023-04-15T14:45:33.383Z,44.67
2023-04-15T14:48:01.559Z,45.70
2023-04-15T14:50:30.543Z,44.71
2023-04-15T14:52:58.540Z,45.70
2023-04-15T14:55:26.111Z,44.17
2023-04-15T14:57:53.558Z,44.24
2023-04-15T15:00:21.003Z,44.48
2023-04-15T15:02:48.533Z,44.63
2023-04-15T15:05:16.345Z,43.97
2023-04-15T15:07:45.267Z,44.26
2023-04-15T15:10:12.882Z,45.65
2023-04-15T15:12:40.309Z,45.69
2023-04-15T15:15:25.199Z,46.75
2023-04-15T15:17:56.370Z,47.71
2023-04-15T15:20:24.453Z,46.65
2023-04-15T15:22:53.380Z,47.87
2023-04-15T15:25:21.017Z,47.83
2023-04-15T15:27:48.818Z,48.37
2023-04-15T15:30:16.214Z,48.56
2023-04-15T15:32:43.900Z,48.77
2023-04-15T15:35:11.440Z,49.04
2023-04-15T15:37:38.962Z,49.31
2023-04-15T15:40:09.070Z,49.02
2023-04-15T15:42:36.457Z,49.55
2023-04-15T15:45:04.815Z,50.10
2023-04-15T15:47:32.681Z,50.77
2023-04-15T15:50:02.030Z,50.78
2023-04-15T15:52:30.786Z,50.83
2023-04-15T15:55:04.418Z,51.52
2023-04-15T15:57:36.715Z,51.27
2023-04-15T16:00:11.770Z,52.33
2023-04-15T16:03:05.061Z,53.21
2023-04-15T16:05:27.959Z,52.87
2023-04-15T16:07:55.513Z,53.78
2023-04-15T16:10:23.081Z,54.18
2023-04-15T16:12:52.001Z,56.33
2023-04-15T16:15:19.659Z,57.97
2023-04-15T16:17:47.059Z,59.33
2023-04-15T16:20:14.477Z,61.67
2023-04-15T16:22:42.043Z,62.03
2023-04-15T16:25:09.961Z,62.61
2023-04-15T16:27:50.233Z,63.90
2023-04-15T16:30:27.258Z,65.55
2023-04-15T16:32:54.980Z,66.47
2023-04-15T16:35:22.543Z,66.46
2023-04-15T16:37:50.415Z,67.58
2023-04-15T16:40:18.070Z,67.95
2023-04-15T16:42:45.593Z,68.39
2023-04-15T16:45:13.053Z,69.59
2023-04-15T16:47:41.933Z,71.69
2023-04-15T16:50:10.797Z,73.00
2023-04-15T16:52:38.296Z,72.97
2023-04-15T16:55:06.367Z,73.06
2023-04-15T16:57:50.653Z,73.24
2023-04-15T17:00:21.453Z,75.95
2023-04-15T17:02:50.589Z,74.27
2023-04-15T17:05:18.590Z,76.54
2023-04-15T17:07:46.355Z,75.56
2023-04-15T17:10:14.043Z,76.58
2023-04-15T17:12:41.520Z,77.14
2023-04-15T17:15:09.888Z,76.71
2023-04-15T17:17:37.996Z,76.35
2023-04-15T17:20:07.982Z,75.90
2023-04-15T17:22:36.003Z,76.45
2023-04-15T17:25:04.671Z,77.22
2023-04-15T17:27:38.548Z,77.53
2023-04-15T17:30:13.356Z,77.47
2023-04-15T17:33:01.604Z,78.84
2023-04-15T17:35:50.577Z,78.51
2023-04-15T17:38:38.004Z,79.57
2023-04-15T17:41:25.411Z,80.10
2023-04-15T17:44:12.819Z,79.66
2023-04-15T17:47:00.445Z,80.23
2023-04-15T17:49:47.845Z,79.84
2023-04-15T17:52:36.653Z,79.67
2023-04-15T17:55:24.331Z,79.57
2023-04-15T17:58:11.921Z,80.01
2023-04-15T18:00:59.330Z,80.12
2023-04-15T18:03:46.874Z,81.24
2023-04-15T18:06:34.552Z,80.51
2023-04-15T18:09:23.283Z,82.07
2023-04-15T18:12:10.831Z,82.69
2023-04-15T18:14:58.259Z,82.48
2023-04-15T18:17:46.015Z,83.32
2023-04-15T18:20:15.909Z,83.39
2023-04-15T18:22:45.898Z,84.59
2023-04-15T18:25:14.776Z,85.38
2023-04-15T18:27:42.516Z,84.16
2023-04-15T18:30:11.659Z,85.01
2023-04-15T18:32:39.344Z,84.93
2023-04-15T18:35:07.528Z,84.93
2023-04-15T18:37:35.316Z,85.39
2023-04-15T18:40:02.737Z,85.77
2023-04-15T18:42:31.658Z,85.44
2023-04-15T18:44:58.956Z,85.06
2023-04-15T18:47:27.572Z,85.65
2023-04-15T18:49:55.084Z,84.24
2023-04-15T18:52:22.641Z,84.33
2023-04-15T18:54:50.054Z,84.87
2023-04-15T18:57:23.645Z,84.91
2023-04-15T18:59:59.927Z,84.89
2023-04-15T19:02:27.613Z,85.03
2023-04-15T19:04:55.252Z,84.87
2023-04-15T19:07:23.182Z,84.75
2023-04-15T19:09:50.637Z,83.99
2023-04-15T19:12:18.298Z,84.58
2023-04-15T19:14:45.969Z,85.14
2023-04-15T19:17:14.881Z,84.69
2023-04-15T19:19:42.407Z,84.70
2023-04-15T19:22:09.976Z,84.27
2023-04-15T19:24:37.391Z,84.37
2023-04-15T19:27:04.870Z,84.12
2023-04-15T19:29:33.177Z,85.23
2023-04-15T19:32:00.878Z,84.72
2023-04-15T19:34:29.669Z,85.19
2023-04-15T19:36:56.867Z,85.00
2023-04-15T19:39:24.344Z,84.92
2023-04-15T19:41:55.172Z,85.46
2023-04-15T19:44:22.840Z,85.13
2023-04-15T19:46:52.788Z,85.56
2023-04-15T19:49:20.390Z,85.80
2023-04-15T19:51:52.168Z,85.62
2023-04-15T19:54:19.549Z,85.42
2023-04-15T19:56:46.894Z,85.45
2023-04-15T19:59:14.303Z,86.00
2023-04-15T20:01:42.342Z,86.46
2023-04-15T20:04:10.496Z,86.30
2023-04-15T20:06:37.976Z,86.86
2023-04-15T20:09:07.711Z,87.28
2023-04-15T20:12:44.910Z,86.61
2023-04-15T20:14:25.137Z,86.54
2023-04-15T20:16:52.669Z,86.99
2023-04-15T20:19:20.089Z,86.84
2023-04-15T20:21:47.583Z,87.21
2023-04-15T20:24:16.469Z,87.62
2023-04-15T20:26:43.788Z,88.14
2023-04-15T20:29:11.356Z,88.06
2023-04-15T20:31:38.924Z,87.75
2023-04-15T20:34:06.435Z,87.47
2023-04-15T20:36:34.307Z,88.34
2023-04-15T20:39:01.766Z,88.32
2023-04-15T20:41:30.563Z,87.94
2023-04-15T20:43:57.832Z,88.19
2023-04-15T20:46:27.309Z,88.07
2023-04-15T20:48:55.670Z,88.30
2023-04-15T20:51:23.075Z,88.01
2023-04-15T20:53:50.519Z,87.41
2023-04-15T20:56:17.897Z,88.05
2023-04-15T20:58:46.686Z,87.81
2023-04-15T21:01:14.041Z,88.17
2023-04-15T21:03:41.699Z,88.36
2023-04-15T21:06:09.295Z,88.34
2023-04-15T21:08:36.678Z,87.73
2023-04-15T21:11:04.136Z,88.34
2023-04-15T21:13:31.669Z,87.36
2023-04-15T21:16:00.604Z,87.74
2023-04-15T21:18:28.111Z,87.90
2023-04-15T21:20:59.172Z,87.75
2023-04-15T21:23:28.766Z,87.99
2023-04-15T21:25:56.652Z,87.73
2023-04-15T21:28:24.081Z,88.40
2023-04-15T21:30:51.522Z,88.78
2023-04-15T21:33:20.609Z,88.05
2023-04-15T21:35:48.205Z,87.57
2023-04-15T21:38:15.711Z,87.35
2023-04-15T21:40:43.189Z,87.72
2023-04-15T21:43:10.656Z,87.62
2023-04-15T21:45:43.527Z,87.43
2023-04-15T21:48:32.322Z,87.33
2023-04-15T21:51:00.165Z,87.01
2023-04-15T21:53:27.873Z,87.69
2023-04-15T21:55:55.454Z,87.76
2023-04-15T21:58:22.840Z,88.57
2023-04-15T22:00:51.432Z,88.06
2023-04-15T22:03:19.008Z,88.47
2023-04-15T22:05:47.976Z,89.07
2023-04-15T22:08:15.383Z,89.04
2023-04-15T22:10:42.727Z,88.98
2023-04-15T22:13:11.106Z,89.38
2023-04-15T22:15:38.785Z,89.36
2023-04-15T22:18:06.524Z,89.30
2023-04-15T22:20:34.027Z,89.71
2023-04-15T22:23:07.562Z,89.23
2023-04-15T22:25:36.965Z,89.75
2023-04-15T22:28:06.926Z,90.04
2023-04-15T22:30:38.213Z,90.08
2023-04-15T22:33:06.456Z,90.22
2023-04-15T22:35:37.384Z,90.37
2023-04-15T22:38:06.408Z,90.38
2023-04-15T22:40:33.806Z,90.02
2023-04-15T22:43:01.353Z,90.30
2023-04-15T22:45:28.721Z,91.02
2023-04-15T22:47:56.278Z,90.75
2023-04-15T22:50:23.815Z,91.16
2023-04-15T22:52:51.484Z,91.02
2023-04-15T22:55:20.703Z,91.41
2023-04-15T22:57:48.123Z,90.86
2023-04-15T23:00:15.503Z,91.33
2023-04-15T23:02:43.008Z,91.14
2023-04-15T23:05:12.436Z,91.44
2023-04-15T23:07:40.695Z,91.31
2023-04-15T23:10:09.138Z,91.35
2023-04-15T23:12:37.880Z,91.13
2023-04-15T23:15:06.197Z,91.37
2023-04-15T23:17:34.828Z,91.38
2023-04-15T23:20:02.237Z,91.18
2023-04-15T23:22:29.631Z,90.84
2023-04-15T23:24:56.990Z,90.93
2023-04-15T23:27:24.397Z,91.07
2023-04-15T23:29:53.129Z,91.37
2023-04-15T23:32:20.806Z,91.08
2023-04-15T23:34:48.279Z,91.18
2023-04-15T23:37:17.550Z,91.01
2023-04-15T23:39:45.470Z,91.44
2023-04-15T23:42:12.897Z,90.85
2023-04-15T23:44:40.368Z,91.04
2023-04-15T23:47:10.373Z,90.88
2023-04-15T23:49:37.804Z,91.40
2023-04-15T23:52:05.718Z,90.88
2023-04-15T23:54:33.250Z,90.86
2023-04-15T23:57:00.819Z,90.24
2023-04-15T23:59:28.278Z,91.13
